createdAt,value
2019-03-29T00:00:59.282Z,22.07
2019-03-29T00:03:28.987Z,20.83
2019-03-29T00:05:58.581Z,21.93
2019-03-29T00:08:28.085Z,19.87
2019-03-29T00:10:57.634Z,21.17
2019-03-29T00:13:27.251Z,19.33
2019-03-29T00:15:56.843Z,19.33
2019-03-29T00:18:27.203Z,21.63
2019-03-29T00:20:56.713Z,20.10
2019-03-29T00:23:26.310Z,18.87
2019-03-29T00:25:55.950Z,19.10
2019-03-29T00:28:25.542Z,18.63
2019-03-29T00:30:55.046Z,18.57
2019-03-29T00:33:24.690Z,19.33
2019-03-29T00:35:54.218Z,19.57
2019-03-29T00:38:23.830Z,18.60
2019-03-29T00:40:53.518Z,18.50
2019-03-29T00:43:23.114Z,19.33
2019-03-29T00:45:52.719Z,17.37
2019-03-29T00:48:22.327Z,16.97
2019-03-29T00:50:51.919Z,17.03
2019-03-29T00:53:21.443Z,17.60
2019-03-29T00:55:51.067Z,17.40
2019-03-29T00:58:20.614Z,17.80
2019-03-29T01:00:50.216Z,16.07
2019-03-29T01:03:19.792Z,18.33
2019-03-29T01:05:49.392Z,15.83
2019-03-29T01:08:18.973Z,15.53
2019-03-29T01:10:48.891Z,15.33
2019-03-29T01:13:18.738Z,15.60
2019-03-29T01:15:48.370Z,15.70
2019-03-29T01:18:17.973Z,15.43
2019-03-29T01:20:48.087Z,15.60
2019-03-29T01:23:17.713Z,16.03
2019-03-29T01:25:47.299Z,15.37
2019-03-29T01:28:16.886Z,16.77
2019-03-29T01:30:46.516Z,15.77
2019-03-29T01:33:16.053Z,15.87
2019-03-29T01:35:45.809Z,15.77
2019-03-29T01:38:21.574Z,13.77
2019-03-29T01:40:46.621Z,14.00
2019-03-29T01:43:16.276Z,15.87
2019-03-29T01:45:46.047Z,15.67
2019-03-29T01:48:15.670Z,13.53
2019-03-29T01:50:45.184Z,14.23
2019-03-29T01:53:14.766Z,15.33
2019-03-29T01:55:44.286Z,15.33
2019-03-29T01:58:13.817Z,14.07
2019-03-29T02:00:43.432Z,15.23
2019-03-29T02:03:13.174Z,15.67
2019-03-29T02:05:43.047Z,15.77
2019-03-29T02:08:12.685Z,15.63
2019-03-29T02:10:42.243Z,15.20
2019-03-29T02:13:11.935Z,14.67
2019-03-29T02:15:41.671Z,14.50
2019-03-29T02:18:11.304Z,15.03
2019-03-29T02:20:40.915Z,15.57
2019-03-29T02:23:10.592Z,17.10
2019-03-29T02:25:40.210Z,15.00
2019-03-29T02:28:09.834Z,15.93
2019-03-29T02:30:39.488Z,14.73
2019-03-29T02:33:10.223Z,14.70
2019-03-29T02:35:39.985Z,15.27
2019-03-29T02:38:09.669Z,16.07
2019-03-29T02:40:39.343Z,17.60
2019-03-29T02:43:10.531Z,16.93
2019-03-29T02:45:40.306Z,16.27
2019-03-29T02:48:09.898Z,16.80
2019-03-29T02:50:39.410Z,15.57
2019-03-29T02:53:09.036Z,15.73
2019-03-29T02:55:38.644Z,17.33
2019-03-29T02:58:08.231Z,16.93
2019-03-29T03:00:37.852Z,15.07
2019-03-29T03:03:07.458Z,16.13
2019-03-29T03:05:37.167Z,16.17
2019-03-29T03:08:06.771Z,18.47
2019-03-29T03:10:36.371Z,16.30
2019-03-29T03:13:05.952Z,16.43
2019-03-29T03:15:35.579Z,17.40
2019-03-29T03:18:05.223Z,17.83
2019-03-29T03:20:34.827Z,17.23
2019-03-29T03:23:04.418Z,17.27
2019-03-29T03:25:33.931Z,17.70
2019-03-29T03:28:03.600Z,17.17
2019-03-29T03:30:33.223Z,17.00
2019-03-29T03:33:02.824Z,17.90
2019-03-29T03:35:32.419Z,16.23
2019-03-29T03:38:02.100Z,16.47
2019-03-29T03:40:31.755Z,16.07
2019-03-29T03:43:01.375Z,16.93
2019-03-29T03:45:30.970Z,16.90
2019-03-29T03:48:00.575Z,16.17
2019-03-29T03:50:39.282Z,16.77
2019-03-29T03:53:09.038Z,17.20
2019-03-29T03:55:39.690Z,15.53
2019-03-29T03:58:09.842Z,15.13
2019-03-29T04:00:58.738Z,14.70
2019-03-29T04:03:28.610Z,15.67
2019-03-29T04:05:58.558Z,14.70
2019-03-29T04:08:28.296Z,16.17
2019-03-29T04:10:57.951Z,16.77
2019-03-29T04:13:27.549Z,14.93
2019-03-29T04:15:57.175Z,18.20
2019-03-29T04:18:26.855Z,15.97
2019-03-29T04:20:56.461Z,15.77
2019-03-29T04:23:26.164Z,16.77
2019-03-29T04:25:56.446Z,18.10
2019-03-29T04:28:26.066Z,19.40
2019-03-29T04:30:55.674Z,16.90
2019-03-29T04:33:25.333Z,17.53
2019-03-29T04:35:54.881Z,18.03
2019-03-29T04:38:24.477Z,17.87
2019-03-29T04:40:54.065Z,16.63
2019-03-29T04:43:23.698Z,18.53
2019-03-29T04:45:53.252Z,18.73
2019-03-29T04:48:22.747Z,17.73
2019-03-29T04:50:52.314Z,18.07
2019-03-29T04:53:21.949Z,18.77
2019-03-29T04:55:51.691Z,17.37
2019-03-29T04:58:21.321Z,17.93
2019-03-29T05:08:04.112Z,18.53
2019-03-29T05:10:33.725Z,18.27
2019-03-29T05:13:03.358Z,19.57
2019-03-29T05:15:32.866Z,18.23
2019-03-29T05:18:02.484Z,19.27
2019-03-29T05:20:32.094Z,17.00
2019-03-29T05:23:01.689Z,18.83
2019-03-29T05:25:31.351Z,19.00
2019-03-29T05:28:00.959Z,18.33
2019-03-29T05:30:30.543Z,18.50
2019-03-29T05:33:00.076Z,19.03
2019-03-29T05:35:29.678Z,18.13
2019-03-29T05:37:59.226Z,19.73
2019-03-29T05:40:34.864Z,20.03
2019-03-29T05:43:00.142Z,19.67
2019-03-29T05:45:29.698Z,18.57
2019-03-29T05:47:59.232Z,19.27
2019-03-29T05:50:28.834Z,19.50
2019-03-29T05:52:58.466Z,20.57
2019-03-29T05:55:32.817Z,20.33
2019-03-29T08:07:27.602Z,37.47
2019-03-29T08:10:04.528Z,38.53
2019-03-29T08:12:34.340Z,38.90
2019-03-29T08:15:04.127Z,36.93
2019-03-29T08:17:33.767Z,36.03
2019-03-29T08:20:36.739Z,35.97
2019-03-29T08:22:34.754Z,35.27
2019-03-29T08:25:04.369Z,38.03
2019-03-29T08:27:34.004Z,36.57
2019-03-29T08:30:03.614Z,32.53
2019-03-29T08:32:33.202Z,35.93
2019-03-29T08:35:02.827Z,37.37
2019-03-29T08:37:32.415Z,35.57
2019-03-29T08:40:02.048Z,35.40
2019-03-29T08:42:31.694Z,35.30
2019-03-29T08:45:01.302Z,35.40
2019-03-29T08:47:30.914Z,35.53
2019-03-29T08:50:01.067Z,36.57
2019-03-29T08:52:30.766Z,40.53
2019-03-29T08:55:00.446Z,40.00
2019-03-29T08:57:30.059Z,41.50
2019-03-29T08:59:59.609Z,42.43
2019-03-29T09:02:29.190Z,43.27
2019-03-29T09:04:58.874Z,45.90
2019-03-29T09:07:28.516Z,45.07
2019-03-29T09:09:58.137Z,49.43
2019-03-29T09:12:27.746Z,50.07
2019-03-29T09:14:57.302Z,50.90
2019-03-29T09:17:26.922Z,49.87
2019-03-29T09:19:56.581Z,51.80
2019-03-29T09:22:26.139Z,52.03
2019-03-29T09:24:55.801Z,52.57
2019-03-29T09:27:25.450Z,49.70
2019-03-29T09:29:55.065Z,52.70
2019-03-29T09:32:24.678Z,47.63
2019-03-29T09:34:54.335Z,44.00
2019-03-29T09:37:23.931Z,50.47
2019-03-29T09:39:53.602Z,53.27
2019-03-29T09:42:29.560Z,48.87
2019-03-29T09:44:54.574Z,42.13
2019-03-29T09:47:24.089Z,39.63
2019-03-29T09:49:53.666Z,39.57
2019-03-29T09:52:23.337Z,46.20
2019-03-29T09:54:54.093Z,44.67
2019-03-29T09:57:36.709Z,40.77
2019-03-29T09:59:55.229Z,44.43
2019-03-29T10:02:24.832Z,43.20
2019-03-29T10:04:54.396Z,40.83
2019-03-29T10:07:24.033Z,41.40
2019-03-29T10:09:53.646Z,39.93
2019-03-29T10:12:23.266Z,40.87
2019-03-29T10:14:52.918Z,41.00
2019-03-29T10:17:22.462Z,40.00
2019-03-29T10:19:52.186Z,40.77
2019-03-29T10:22:21.818Z,40.63
2019-03-29T10:24:51.431Z,36.53
2019-03-29T10:27:21.043Z,38.97
2019-03-29T10:29:50.657Z,36.37
2019-03-29T10:32:20.250Z,34.07
2019-03-29T10:34:49.882Z,32.73
2019-03-29T10:37:19.506Z,34.90
2019-03-29T10:39:49.123Z,29.17
2019-03-29T10:42:18.785Z,36.63
2019-03-29T10:44:49.509Z,29.93
2019-03-29T10:47:19.412Z,31.20
2019-03-29T10:49:49.029Z,30.50
2019-03-29T10:52:18.632Z,25.53
2019-03-29T10:54:49.939Z,33.27
2019-03-29T10:57:19.633Z,34.30
2019-03-29T10:59:49.247Z,34.87
2019-03-29T11:02:18.909Z,42.07
2019-03-29T11:04:48.606Z,41.80
2019-03-29T11:07:18.197Z,43.60
2019-03-29T11:09:47.842Z,42.83
2019-03-29T11:12:17.486Z,49.07
2019-03-29T11:14:47.154Z,47.67
2019-03-29T11:17:16.810Z,44.23
2019-03-29T11:19:46.451Z,40.50
2019-03-29T11:22:16.096Z,35.00
2019-03-29T11:24:45.801Z,39.97
2019-03-29T11:27:15.446Z,38.87
2019-03-29T11:29:45.084Z,38.53
2019-03-29T11:32:14.729Z,36.13
2019-03-29T11:34:44.407Z,40.80
2019-03-29T11:37:14.061Z,37.50
2019-03-29T11:39:43.733Z,40.03
2019-03-29T11:42:13.358Z,38.13
2019-03-29T11:44:43.018Z,36.20
2019-03-29T11:47:12.626Z,36.00
2019-03-29T11:49:42.279Z,33.17
2019-03-29T11:52:11.902Z,37.77
2019-03-29T11:54:41.551Z,32.90
2019-03-29T11:57:11.166Z,36.03
2019-03-29T11:59:40.778Z,39.67
2019-03-29T12:02:10.386Z,40.23
2019-03-29T12:04:40.059Z,35.17
2019-03-29T12:07:09.631Z,36.90
2019-03-29T12:09:39.281Z,33.57
2019-03-29T12:12:08.923Z,27.67
2019-03-29T12:14:38.514Z,28.27
2019-03-29T12:17:08.689Z,32.77
2019-03-29T12:19:39.439Z,29.73
2019-03-29T12:22:09.033Z,33.27
2019-03-29T12:24:38.682Z,33.70
2019-03-29T12:27:08.324Z,34.60
2019-03-29T12:29:37.891Z,21.73
2019-03-29T12:32:07.506Z,22.47
2019-03-29T12:34:37.194Z,27.27
2019-03-29T12:37:06.835Z,24.80
2019-03-29T12:39:36.461Z,29.33
2019-03-29T12:42:06.104Z,29.33
2019-03-29T12:44:35.630Z,30.10
2019-03-29T12:47:05.254Z,29.70
2019-03-29T12:49:34.877Z,28.47
2019-03-29T12:52:04.546Z,30.57
2019-03-29T12:54:34.150Z,29.17
2019-03-29T12:57:06.726Z,26.70
2019-03-29T12:59:35.137Z,26.37
2019-03-29T13:02:04.872Z,25.03
2019-03-29T13:04:34.417Z,27.70
2019-03-29T13:07:04.031Z,23.00
2019-03-29T13:09:33.758Z,25.23
2019-03-29T13:12:03.450Z,23.60
2019-03-29T13:14:32.972Z,23.80
2019-03-29T13:17:03.026Z,22.10
2019-03-29T13:19:32.878Z,24.30
2019-03-29T13:22:02.517Z,24.83
2019-03-29T13:24:32.132Z,23.77
2019-03-29T13:27:01.682Z,28.70
2019-03-29T13:29:31.265Z,22.23
2019-03-29T13:32:00.870Z,21.67
2019-03-29T13:34:30.621Z,25.20
2019-03-29T13:37:00.238Z,22.70
2019-03-29T13:39:29.841Z,25.27
2019-03-29T13:41:59.481Z,24.50
2019-03-29T13:44:29.118Z,25.80
2019-03-29T13:46:58.734Z,24.77
2019-03-29T13:49:28.360Z,25.87
2019-03-29T13:51:58.011Z,23.63
2019-03-29T13:54:27.742Z,25.33
2019-03-29T13:56:57.366Z,24.57
2019-03-29T13:59:26.970Z,26.70
2019-03-29T14:01:56.672Z,25.83
2019-03-29T14:04:26.266Z,23.57
2019-03-29T14:06:55.874Z,21.47
2019-03-29T14:09:25.415Z,21.80
2019-03-29T14:11:55.018Z,23.87
2019-03-29T14:14:37.374Z,23.87
2019-03-29T14:16:55.925Z,21.30
2019-03-29T14:19:26.001Z,22.17
2019-03-29T14:21:55.705Z,19.73
2019-03-29T14:24:25.396Z,22.07
2019-03-29T14:26:54.933Z,21.37
2019-03-29T14:29:24.553Z,19.30
2019-03-29T14:31:54.425Z,20.20
2019-03-29T14:34:24.153Z,18.53
2019-03-29T14:36:53.770Z,19.33
2019-03-29T14:39:23.390Z,20.23
2019-03-29T14:41:52.981Z,20.47
2019-03-29T14:44:22.642Z,22.47
2019-03-29T14:46:52.286Z,19.37
2019-03-29T14:49:21.838Z,17.90
2019-03-29T14:51:51.467Z,20.17
2019-03-29T14:54:21.054Z,19.33
2019-03-29T14:56:50.649Z,20.97
2019-03-29T14:59:20.318Z,18.43
2019-03-29T15:01:49.902Z,20.67
2019-03-29T15:04:19.406Z,18.33
2019-03-29T15:06:49.038Z,18.23
2019-03-29T15:09:18.640Z,19.47
2019-03-29T15:11:48.144Z,18.97
2019-03-29T15:14:17.784Z,16.70
2019-03-29T15:16:47.487Z,15.90
2019-03-29T15:19:17.031Z,16.83
2019-03-29T15:21:46.583Z,15.23
2019-03-29T15:24:16.288Z,15.77
2019-03-29T15:26:45.972Z,17.50
2019-03-29T15:29:15.626Z,16.50
2019-03-29T15:31:45.249Z,11.80
2019-03-29T15:34:15.617Z,13.53
2019-03-29T15:36:45.168Z,14.73
2019-03-29T15:39:14.842Z,12.60
2019-03-29T15:41:44.473Z,14.23
2019-03-29T15:44:14.157Z,15.27
2019-03-29T15:46:43.774Z,14.63
2019-03-29T15:49:13.425Z,12.67
2019-03-29T15:51:43.075Z,14.70
2019-03-29T15:54:12.711Z,16.07
2019-03-29T15:56:42.354Z,13.73
2019-03-29T15:59:11.906Z,13.33
2019-03-29T16:01:41.541Z,14.70
2019-03-29T16:04:11.169Z,16.33
2019-03-29T16:06:40.854Z,15.20
2019-03-29T16:09:10.465Z,14.33
2019-03-29T16:11:40.006Z,15.53
2019-03-29T16:14:09.679Z,14.83
2019-03-29T16:16:39.246Z,14.43
2019-03-29T16:19:10.463Z,14.33
2019-03-29T16:21:40.100Z,12.33
2019-03-29T16:24:09.734Z,15.27
2019-03-29T16:26:39.315Z,14.83
2019-03-29T16:29:08.881Z,16.60
2019-03-29T16:31:38.478Z,14.90
2019-03-29T16:34:09.614Z,15.87
2019-03-29T16:36:39.222Z,15.17
2019-03-29T16:39:08.963Z,14.67
2019-03-29T16:41:38.485Z,15.77
2019-03-29T16:44:08.052Z,15.33
2019-03-29T16:46:37.627Z,14.70
2019-03-29T16:49:07.217Z,15.47
2019-03-29T16:51:37.041Z,17.43
2019-03-29T16:54:06.667Z,15.00
2019-03-29T16:56:38.170Z,16.90
2019-03-29T16:59:08.166Z,15.90
2019-03-29T17:01:37.794Z,14.03
2019-03-29T17:04:07.401Z,20.40
2019-03-29T17:06:37.009Z,16.67
2019-03-29T17:09:07.683Z,15.53
2019-03-29T17:11:37.250Z,17.30
2019-03-29T17:14:06.914Z,16.73
2019-03-29T17:16:36.605Z,17.53
2019-03-29T17:19:06.205Z,14.83
2019-03-29T17:21:35.867Z,16.13
2019-03-29T17:24:05.540Z,14.23
2019-03-29T17:26:35.173Z,15.73
2019-03-29T17:29:04.867Z,15.87
2019-03-29T17:31:34.485Z,14.40
2019-03-29T17:34:04.113Z,15.03
2019-03-29T17:36:33.738Z,11.83
2019-03-29T17:39:04.068Z,13.43
2019-03-29T17:41:33.702Z,10.43
2019-03-29T17:44:03.340Z,11.87
2019-03-29T17:46:32.934Z,12.13
2019-03-29T17:49:02.502Z,11.43
2019-03-29T17:51:32.162Z,12.83
2019-03-29T17:54:01.775Z,12.00
2019-03-29T17:56:31.381Z,12.13
2019-03-29T17:59:01.018Z,11.50
2019-03-29T18:01:30.673Z,13.30
2019-03-29T18:04:00.294Z,14.33
2019-03-29T18:06:29.930Z,12.80
2019-03-29T18:09:02.328Z,12.57
2019-03-29T18:11:31.991Z,14.70
2019-03-29T18:14:01.649Z,14.13
2019-03-29T18:16:32.857Z,13.77
2019-03-29T18:19:02.520Z,14.97
2019-03-29T18:21:34.126Z,14.07
2019-03-29T18:30:53.169Z,16.00
2019-03-29T18:33:22.871Z,14.70
2019-03-29T18:35:52.473Z,16.33
2019-03-29T18:38:22.494Z,23.90
2019-03-29T18:40:52.113Z,26.80
2019-03-29T18:43:21.754Z,26.40
2019-03-29T18:45:54.423Z,25.37
2019-03-29T18:48:24.278Z,25.37
2019-03-29T18:50:53.878Z,25.40
2019-03-29T18:53:23.463Z,26.97
2019-03-29T18:55:53.076Z,28.43
2019-03-29T18:58:22.958Z,29.67
2019-03-29T19:00:52.482Z,30.40
2019-03-29T19:03:22.114Z,30.90
2019-03-29T19:05:51.899Z,31.23
2019-03-29T19:08:21.496Z,34.37
2019-03-29T19:10:51.107Z,32.07
2019-03-29T19:13:20.889Z,34.83
2019-03-29T19:15:50.453Z,34.63
2019-03-29T19:18:20.122Z,36.77
2019-03-29T19:20:49.743Z,37.63
2019-03-29T19:23:19.258Z,39.90
2019-03-29T19:25:48.851Z,41.53
2019-03-29T19:28:18.514Z,42.00
2019-03-29T19:30:48.103Z,45.33
2019-03-29T19:33:17.609Z,45.67
2019-03-29T19:35:47.525Z,46.50
2019-03-29T19:38:19.882Z,46.13
2019-03-29T19:40:49.443Z,45.10
2019-03-29T19:43:18.998Z,47.63
2019-03-29T19:45:48.597Z,48.97
2019-03-29T19:48:18.318Z,50.43
2019-03-29T19:50:47.974Z,48.63
2019-03-29T19:56:57.615Z,49.63
2019-03-29T19:59:27.361Z,52.03
2019-03-29T20:01:56.932Z,49.27
2019-03-29T20:04:26.543Z,52.70
2019-03-29T20:06:56.194Z,51.83
2019-03-29T20:09:25.828Z,50.17
2019-03-29T20:11:55.569Z,49.53
2019-03-29T20:14:25.222Z,49.17
2019-03-29T20:16:55.373Z,49.73
2019-03-29T20:19:25.005Z,49.63
2019-03-29T20:21:54.630Z,50.57
2019-03-29T20:24:24.282Z,53.87
2019-03-29T20:26:57.658Z,50.53
2019-03-29T20:29:28.925Z,53.00
2019-03-29T20:31:58.546Z,56.27
2019-03-29T20:34:28.206Z,55.37
2019-03-29T20:36:57.851Z,56.37
2019-03-29T20:39:27.511Z,59.93
2019-03-29T20:41:57.127Z,53.37
2019-03-29T20:44:30.094Z,62.67
2019-03-29T20:46:58.968Z,55.17
2019-03-29T20:49:27.795Z,49.93
2019-03-29T20:51:56.597Z,51.57
2019-03-29T20:54:25.575Z,52.83
2019-03-29T20:56:54.382Z,52.80
2019-03-29T20:59:23.230Z,50.80
2019-03-29T21:01:53.014Z,51.73
2019-03-29T21:04:21.959Z,54.67
2019-03-29T21:06:50.766Z,52.40
2019-03-29T21:09:19.621Z,51.90
2019-03-29T21:11:48.474Z,51.67
2019-03-29T21:14:17.346Z,49.40
2019-03-29T21:16:46.331Z,51.00
2019-03-29T21:19:15.159Z,54.00
2019-03-29T21:21:44.021Z,51.37
2019-03-29T21:24:12.834Z,51.03
2019-03-29T21:26:41.669Z,52.30
2019-03-29T21:29:10.660Z,52.20
2019-03-29T21:31:39.580Z,51.53
2019-03-29T21:34:08.469Z,51.30
2019-03-29T21:36:37.334Z,51.33
2019-03-29T21:39:08.741Z,49.40
2019-03-29T21:41:37.616Z,52.17
2019-03-29T21:44:06.425Z,53.83
2019-03-29T21:46:35.269Z,50.37
2019-03-29T21:49:04.107Z,53.37
2019-03-29T21:51:32.917Z,49.77
2019-03-29T21:54:01.772Z,52.23
2019-03-29T21:56:30.606Z,49.47
2019-03-29T21:58:59.490Z,47.60
2019-03-29T22:01:28.331Z,50.73
2019-03-29T22:03:57.206Z,48.43
2019-03-29T22:06:26.121Z,50.03
2019-03-29T22:08:54.981Z,49.90
2019-03-29T22:11:25.479Z,51.67
2019-03-29T22:13:54.318Z,50.43
2019-03-29T22:16:23.158Z,51.20
2019-03-29T22:18:52.007Z,52.87
2019-03-29T22:21:20.824Z,54.23
2019-03-29T22:23:49.859Z,48.70
2019-03-29T22:26:18.778Z,50.83
2019-03-29T22:28:47.622Z,51.83
2019-03-29T22:31:16.485Z,49.77
2019-03-29T22:33:45.298Z,49.33
2019-03-29T22:36:14.126Z,54.17
2019-03-29T22:45:31.734Z,49.50
2019-03-29T22:48:00.565Z,49.70
2019-03-29T22:50:29.426Z,47.20
2019-03-29T22:52:58.250Z,50.50
2019-03-29T22:55:27.080Z,50.73
2019-03-29T22:57:55.930Z,50.47
2019-03-29T23:00:27.908Z,50.73
2019-03-29T23:02:58.580Z,49.60
2019-03-29T23:05:27.405Z,49.63
2019-03-29T23:07:56.277Z,45.53
2019-03-29T23:10:25.114Z,46.57
2019-03-29T23:12:53.950Z,48.47
2019-03-29T23:15:22.801Z,49.40
2019-03-29T23:17:51.694Z,51.17
2019-03-29T23:20:20.570Z,52.97
2019-03-29T23:22:49.441Z,51.70
2019-03-29T23:25:18.281Z,48.87
2019-03-29T23:27:49.408Z,51.97
2019-03-29T23:30:18.278Z,53.87
2019-03-29T23:32:47.282Z,52.90
2019-03-29T23:35:17.842Z,52.63
2019-03-29T23:37:46.676Z,51.10
2019-03-29T23:40:15.489Z,49.27
2019-03-29T23:42:44.327Z,50.80
2019-03-29T23:45:13.177Z,50.90
2019-03-29T23:47:41.990Z,52.57
2019-03-29T23:50:10.806Z,49.73
2019-03-29T23:52:39.630Z,50.73
2019-03-29T23:55:08.450Z,49.10
2019-03-29T23:57:37.341Z,46.93
